Time;durP1;ratioP1;P1;durP2;ratioP2;P2;SDS_P1;SDS_P2;PMS_P1;PMS_P2;Temp;Humidity;BMP_temperature;BMP_pressure;BME280_temperature;BME280_humidity;BME280_pressure;Samples;Min_cycle;Max_cycle;Signal;HPM_P1;HPM_P2
2023/01/05 00:00:47;;;;;;;35.13;5.00;;;11.20;99.90;;;;;;5075518;28;20112;-36
2023/01/05 00:03:13;;;;;;;22.27;3.80;;;11.20;99.90;;;;;;5076652;28;20060;-40
2023/01/05 00:05:38;;;;;;;26.25;3.58;;;11.20;99.90;;;;;;5076611;28;20464;-44
2023/01/05 00:08:04;;;;;;;19.38;3.08;;;11.20;99.90;;;;;;5076450;28;20107;-45
2023/01/05 00:24:14;;;;;;;28.77;3.42;;;11.30;99.90;;;;;;5075826;28;20095;-40
2023/01/05 00:26:40;;;;;;;20.30;3.95;;;11.30;99.90;;;;;;5075741;28;20468;-41
2023/01/05 00:29:06;;;;;;;22.45;3.33;;;11.30;99.90;;;;;;5075836;28;20020;-46
2023/01/05 00:31:31;;;;;;;22.92;3.97;;;11.30;99.90;;;;;;5072057;28;20365;-42
2023/01/05 00:33:57;;;;;;;24.20;3.10;;;11.30;99.90;;;;;;5074865;28;20056;-47
2023/01/05 00:36:22;;;;;;;16.23;3.08;;;11.30;99.90;;;;;;5073253;28;20473;-45
2023/01/05 00:38:48;;;;;;;23.08;4.20;;;11.30;99.90;;;;;;5072042;28;20480;-43
2023/01/05 00:41:14;;;;;;;19.10;4.57;;;11.30;99.90;;;;;;5074705;28;20037;-44
2023/01/05 00:43:40;;;;;;;15.05;2.35;;;11.30;99.90;;;;;;5072071;28;20541;-36
2023/01/05 00:46:05;;;;;;;17.23;2.92;;;11.30;99.90;;;;;;5074912;28;20035;-40
2023/01/05 00:48:31;;;;;;;27.98;4.90;;;11.30;99.90;;;;;;5074507;28;20027;-40
2023/01/05 00:50:56;;;;;;;25.88;4.07;;;11.20;99.90;;;;;;5070059;28;20101;-39
2023/01/05 00:53:22;;;;;;;27.25;4.15;;;11.20;99.90;;;;;;5073857;28;20032;-48
2023/01/05 00:55:57;;;;;;;23.67;3.47;;;11.20;99.90;;;;;;5075525;28;20496;-47
2023/01/05 00:58:23;;;;;;;31.40;5.65;;;11.20;99.90;;;;;;5075486;28;20473;-48
2023/01/05 01:00:49;;;;;;;23.27;2.80;;;11.20;99.90;;;;;;5073186;28;20021;-40
2023/01/05 01:03:14;;;;;;;21.80;3.70;;;11.20;99.90;;;;;;5075087;28;20354;-36
2023/01/05 01:05:40;;;;;;;20.58;3.78;;;11.30;99.90;;;;;;5075415;28;20052;-38
2023/01/05 01:08:05;;;;;;;26.73;3.55;;;11.30;99.90;;;;;;5073200;28;20048;-36
2023/01/05 01:10:31;;;;;;;18.63;2.65;;;11.30;99.90;;;;;;5074082;28;20129;-40
2023/01/05 01:12:56;;;;;;;20.10;3.25;;;11.30;99.90;;;;;;5075122;28;20468;-37
2023/01/05 01:15:22;;;;;;;31.02;3.72;;;11.20;99.90;;;;;;5075031;28;20032;-40
2023/01/05 01:17:48;;;;;;;16.55;3.70;;;11.30;99.90;;;;;;5075104;28;20028;-40
2023/01/05 01:20:13;;;;;;;26.55;3.35;;;11.40;99.90;;;;;;5075398;28;20439;-40
2023/01/05 01:22:39;;;;;;;22.90;3.13;;;11.30;99.90;;;;;;5074629;28;20079;-39
2023/01/05 01:25:05;;;;;;;14.32;2.38;;;11.30;99.90;;;;;;5074913;28;20081;-40
2023/01/05 01:27:32;;;;;;;29.10;4.15;;;11.30;99.90;;;;;;5073973;28;20438;-40
2023/01/05 01:29:57;;;;;;;17.70;3.38;;;11.30;99.90;;;;;;5075045;28;20017;-38
2023/01/05 01:32:25;;;;;;;29.27;3.35;;;11.30;99.90;;;;;;5074796;28;20449;-38
2023/01/05 01:34:51;;;;;;;21.60;2.75;;;11.20;99.90;;;;;;5074806;28;20051;-41
2023/01/05 01:37:17;;;;;;;23.58;3.13;;;11.30;99.90;;;;;;5074855;28;20063;-40
2023/01/05 01:39:42;;;;;;;31.80;3.90;;;11.20;99.90;;;;;;5074979;28;20051;-38
2023/01/05 01:42:13;;;;;;;24.25;3.78;;;11.30;99.90;;;;;;5074594;28;20237;-40
2023/01/05 01:44:54;;;;;;;27.55;3.20;;;11.30;99.90;;;;;;5074458;28;20387;-46
2023/01/05 01:47:40;;;;;;;23.75;4.20;;;11.30;99.90;;;;;;5074225;28;20043;-47
2023/01/05 01:50:18;;;;;;;23.85;3.92;;;11.30;99.90;;;;;;5074666;28;20013;-44
2023/01/05 01:52:46;;;;;;;25.60;2.70;;;11.30;99.90;;;;;;5074473;28;20499;-46
2023/01/05 01:55:12;;;;;;;;;;;11.30;99.90;;;;;;5074922;28;20025;-40
2023/01/05 01:57:39;;;;;;;19.13;3.58;;;11.30;99.90;;;;;;5074489;28;19987;-43
2023/01/05 02:00:08;;;;;;;22.23;2.92;;;11.30;99.90;;;;;;5068129;28;20021;-43
2023/01/05 02:02:33;;;;;;;28.42;3.75;;;11.30;99.90;;;;;;5069487;28;20024;-42
2023/01/05 02:05:03;;;;;;;27.30;3.35;;;11.30;99.90;;;;;;5075995;28;20036;-40
2023/01/05 02:07:32;;;;;;;31.00;3.30;;;11.30;99.90;;;;;;5071879;28;20017;-41
2023/01/05 02:09:58;;;;;;;30.00;4.30;;;11.30;99.90;;;;;;5074341;28;20371;-42
2023/01/05 02:13:02;;;;;;;29.80;3.45;;;11.20;99.90;;;;;;5072473;28;20025;-42
2023/01/05 02:16:02;;;;;;;26.58;3.03;;;11.20;99.90;;;;;;5019541;28;20049;-44
2023/01/05 02:18:33;;;;;;;23.15;3.95;;;11.20;99.90;;;;;;5073320;28;20025;-44
2023/01/05 02:21:09;;;;;;;24.00;3.58;;;11.20;99.90;;;;;;5071718;28;20059;-45
2023/01/05 02:24:29;;;;;;;22.02;3.15;;;11.20;99.90;;;;;;5073814;28;20048;-41
2023/01/05 02:27:00;;;;;;;21.38;4.03;;;11.10;99.90;;;;;;5011182;28;20501;-42
2023/01/05 02:29:41;;;;;;;22.88;3.75;;;11.20;99.90;;;;;;5063274;28;20048;-44
2023/01/05 02:32:09;;;;;;;31.63;3.88;;;11.20;99.90;;;;;;5074088;28;20021;-42
2023/01/05 02:34:56;;;;;;;26.35;3.53;;;11.20;99.90;;;;;;5073173;28;20039;-42
2023/01/05 02:37:52;;;;;;;25.58;3.38;;;11.20;99.90;;;;;;5073931;28;20029;-42
2023/01/05 02:40:28;;;;;;;28.92;3.42;;;11.20;99.90;;;;;;5065856;28;20048;-40
2023/01/05 02:42:55;;;;;;;28.15;4.32;;;11.20;99.90;;;;;;5071809;28;20025;-54
2023/01/05 02:45:22;;;;;;;26.73;4.83;;;11.30;99.90;;;;;;5072503;28;20476;-39
2023/01/05 02:47:48;;;;;;;19.83;4.28;;;11.20;99.90;;;;;;5071740;28;20476;-54
2023/01/05 02:50:27;;;;;;;33.13;3.70;;;11.20;99.90;;;;;;5073462;28;20023;-42
2023/01/05 02:53:00;;;;;;;29.88;3.17;;;11.20;99.90;;;;;;5073310;28;20079;-43
2023/01/05 02:55:36;;;;;;;21.33;4.15;;;11.20;99.90;;;;;;5073630;28;20480;-46
2023/01/05 02:58:11;;;;;;;19.20;2.97;;;11.30;99.90;;;;;;5073082;28;20457;-48
2023/01/05 03:01:03;;;;;;;19.20;2.88;;;11.30;99.90;;;;;;5072476;28;20031;-39
2023/01/05 03:03:46;;;;;;;13.10;2.72;;;11.30;99.90;;;;;;5071205;28;20538;-41
2023/01/05 03:06:45;;;;;;;20.27;3.72;;;11.20;99.90;;;;;;5073187;28;20059;-42
2023/01/05 03:09:14;;;;;;;27.52;3.55;;;11.20;99.90;;;;;;5073433;28;20024;-42
2023/01/05 03:14:54;;;;;;;28.20;3.63;;;11.10;99.90;;;;;;5070119;28;20087;-40
2023/01/05 03:17:28;;;;;;;25.48;4.32;;;11.10;99.90;;;;;;5062190;28;20526;-40
2023/01/05 03:19:55;;;;;;;24.23;3.80;;;11.10;99.90;;;;;;5071141;28;20044;-39
2023/01/05 03:37:02;;;;;;;22.88;3.00;;;11.00;99.90;;;;;;5073064;28;20039;-36
2023/01/05 03:39:29;;;;;;;27.65;3.05;;;11.00;99.90;;;;;;5068905;28;20032;-38
2023/01/05 03:41:56;;;;;;;27.45;3.40;;;11.00;99.90;;;;;;5072042;28;20150;-45
2023/01/05 03:44:22;;;;;;;25.98;4.57;;;11.00;99.90;;;;;;5069509;28;20059;-40
2023/01/05 03:46:48;;;;;;;33.15;3.85;;;11.10;99.90;;;;;;5071874;28;20055;-47
2023/01/05 03:49:13;;;;;;;24.73;3.42;;;11.20;99.90;;;;;;5069936;28;20029;-41
2023/01/05 03:51:39;;;;;;;23.38;3.63;;;11.20;99.90;;;;;;5071913;28;20036;-43
2023/01/05 03:54:05;;;;;;;38.45;3.90;;;11.30;99.90;;;;;;5069352;28;20033;-43
2023/01/05 03:56:30;;;;;;;28.25;4.05;;;11.20;99.90;;;;;;5072160;28;20384;-42
2023/01/05 03:58:56;;;;;;;33.92;3.85;;;11.20;99.90;;;;;;5070238;28;20071;-46
2023/01/05 04:01:22;;;;;;;22.73;3.85;;;11.20;99.90;;;;;;5072199;28;20040;-46
2023/01/05 04:03:47;;;;;;;15.98;3.30;;;11.10;99.90;;;;;;5071281;28;20044;-43
2023/01/05 04:06:13;;;;;;;21.02;2.80;;;11.20;99.90;;;;;;5070862;28;20052;-42
2023/01/05 04:08:38;;;;;;;25.23;3.67;;;11.20;99.90;;;;;;5071354;28;20065;-42
2023/01/05 04:11:15;;;;;;;26.33;3.58;;;11.20;99.90;;;;;;5070705;28;20031;-43
2023/01/05 04:13:41;;;;;;;32.03;4.18;;;11.20;99.90;;;;;;5072465;28;20020;-47
2023/01/05 04:16:08;;;;;;;22.25;4.88;;;11.20;99.90;;;;;;5072363;28;20055;-38
2023/01/05 04:18:34;;;;;;;24.00;3.38;;;11.20;99.90;;;;;;5071898;28;20151;-44
2023/01/05 04:20:59;;;;;;;18.83;2.60;;;11.20;99.90;;;;;;5072291;28;20543;-47
2023/01/05 04:23:25;;;;;;;23.83;4.80;;;11.30;99.90;;;;;;5072433;28;20485;-45
2023/01/05 04:25:51;;;;;;;27.73;3.47;;;11.30;99.90;;;;;;5069400;28;20126;-44
2023/01/05 04:28:16;;;;;;;18.77;3.78;;;11.30;99.90;;;;;;5071494;28;20025;-43
2023/01/05 04:30:43;;;;;;;15.15;3.15;;;11.20;99.90;;;;;;5072341;28;20127;-43
2023/01/05 04:33:09;;;;;;;15.10;3.42;;;11.20;99.90;;;;;;5071648;28;20028;-41
2023/01/05 04:35:35;;;;;;;19.27;2.28;;;11.20;99.90;;;;;;5073708;28;20029;-45
2023/01/05 04:38:00;;;;;;;20.92;3.10;;;11.20;99.90;;;;;;5076130;28;20388;-44
2023/01/05 04:40:26;;;;;;;30.38;3.30;;;11.20;99.90;;;;;;5076001;28;20021;-42
2023/01/05 04:42:52;;;;;;;18.98;3.40;;;11.10;99.90;;;;;;5075865;28;20180;-43
2023/01/05 04:45:17;;;;;;;19.02;2.85;;;11.10;99.90;;;;;;5074724;28;20016;-44
2023/01/05 04:47:43;;;;;;;19.98;3.15;;;11.10;99.90;;;;;;5075679;28;20056;-43
2023/01/05 04:50:09;;;;;;;33.92;4.53;;;11.10;99.90;;;;;;5075179;28;20496;-43
2023/01/05 04:52:35;;;;;;;36.45;4.30;;;11.10;99.90;;;;;;5075644;28;20112;-38
2023/01/05 04:55:00;;;;;;;14.68;2.63;;;11.10;99.90;;;;;;5074244;28;20103;-36
2023/01/05 04:57:26;;;;;;;30.38;3.80;;;11.10;99.90;;;;;;5075144;28;20095;-40
2023/01/05 04:59:52;;;;;;;25.42;3.33;;;11.20;99.90;;;;;;5075171;28;20036;-40
2023/01/05 05:02:18;;;;;;;32.10;3.42;;;11.10;99.90;;;;;;5075048;28;20028;-37
2023/01/05 05:04:43;;;;;;;19.88;3.65;;;11.00;99.90;;;;;;5072676;28;20025;-39
2023/01/05 05:07:09;;;;;;;23.00;2.70;;;11.00;99.90;;;;;;5074712;28;20112;-42
2023/01/05 05:09:35;;;;;;;28.83;2.80;;;11.00;99.90;;;;;;5073898;28;20021;-43
2023/01/05 05:12:00;;;;;;;23.55;3.30;;;11.00;99.90;;;;;;5075240;28;20020;-53
2023/01/05 05:14:26;;;;;;;20.35;3.38;;;10.90;99.90;;;;;;5073901;28;20055;-47
2023/01/05 05:16:52;;;;;;;22.92;3.75;;;10.90;99.90;;;;;;5075566;28;20111;-38
2023/01/05 05:19:17;;;;;;;26.23;3.90;;;10.80;99.90;;;;;;5074321;28;20028;-42
2023/01/05 05:21:43;;;;;;;16.33;3.13;;;10.80;99.90;;;;;;5073952;28;20024;-36
2023/01/05 05:24:09;;;;;;;41.53;4.57;;;10.80;99.90;;;;;;5072961;28;20036;-39
2023/01/05 05:26:34;;;;;;;29.15;4.78;;;10.80;99.90;;;;;;5071496;28;20423;-38
2023/01/05 05:29:00;;;;;;;20.85;4.18;;;10.90;99.90;;;;;;5072362;28;20029;-42
2023/01/05 05:31:26;;;;;;;39.45;4.63;;;10.90;99.90;;;;;;5074630;28;20431;-41
2023/01/05 05:33:51;;;;;;;24.55;2.45;;;10.90;99.90;;;;;;5073087;28;20033;-44
2023/01/05 05:36:17;;;;;;;24.98;2.80;;;10.90;99.90;;;;;;5072245;28;20032;-54
2023/01/05 05:38:43;;;;;;;21.33;2.88;;;11.00;99.90;;;;;;5074866;28;20028;-39
2023/01/05 05:41:12;;;;;;;12.20;2.80;;;11.00;99.90;;;;;;5073745;28;20096;-42
2023/01/05 05:43:41;;;;;;;36.40;4.95;;;11.00;99.90;;;;;;5073831;28;20111;-43
2023/01/05 05:46:06;;;;;;;21.10;3.58;;;11.00;99.90;;;;;;5072950;28;20365;-40
2023/01/05 05:48:32;;;;;;;22.85;3.42;;;11.00;99.90;;;;;;5072882;28;20020;-48
2023/01/05 05:50:58;;;;;;;25.02;3.50;;;11.00;99.90;;;;;;5072668;28;20404;-44
2023/01/05 05:53:23;;;;;;;36.05;5.47;;;11.10;99.90;;;;;;5069200;28;20021;-45
2023/01/05 05:55:52;;;;;;;17.23;2.85;;;11.10;99.90;;;;;;5072430;28;20024;-44
2023/01/05 05:58:18;;;;;;;18.65;2.47;;;11.10;99.90;;;;;;5070452;28;20020;-46
2023/01/05 06:00:45;;;;;;;16.20;2.67;;;11.10;99.90;;;;;;5071929;28;20017;-47
2023/01/05 06:03:11;;;;;;;24.60;3.63;;;11.10;99.90;;;;;;5071330;28;20450;-44
2023/01/05 06:05:37;;;;;;;24.20;3.25;;;11.10;99.90;;;;;;5072207;28;20052;-47
2023/01/05 06:08:03;;;;;;;16.60;2.95;;;11.10;99.90;;;;;;5070958;28;20050;-49
2023/01/05 06:10:28;;;;;;;27.73;3.60;;;11.20;99.90;;;;;;5070950;28;20028;-42
2023/01/05 06:12:54;;;;;;;19.85;4.63;;;11.20;99.90;;;;;;5072193;28;20096;-41
2023/01/05 06:15:21;;;;;;;29.10;2.80;;;11.20;99.90;;;;;;5062744;28;20028;-39
2023/01/05 06:17:47;;;;;;;24.23;4.03;;;11.20;99.90;;;;;;5069463;28;20021;-42
2023/01/05 06:20:15;;;;;;;21.00;3.38;;;11.20;99.90;;;;;;5070731;28;20432;-47
2023/01/05 06:22:41;;;;;;;;;;;11.20;99.90;;;;;;5074400;28;20028;-46
2023/01/05 06:25:07;;;;;;;20.45;3.53;;;11.20;99.90;;;;;;5073656;28;19916;-37
2023/01/05 06:27:33;;;;;;;32.33;3.83;;;11.20;99.90;;;;;;5073884;28;20025;-39
2023/01/05 06:29:59;;;;;;;24.67;3.13;;;11.20;99.90;;;;;;5073841;28;20021;-38
2023/01/05 06:32:24;;;;;;;23.70;4.38;;;11.10;99.90;;;;;;5073777;28;20031;-39
2023/01/05 06:34:50;;;;;;;28.77;4.55;;;11.20;99.90;;;;;;5073613;28;20021;-38
2023/01/05 06:37:16;;;;;;;28.35;3.55;;;11.10;99.90;;;;;;5073948;28;20024;-38
2023/01/05 06:39:41;;;;;;;26.50;3.00;;;11.10;99.90;;;;;;5073655;28;20024;-43
2023/01/05 06:42:07;;;;;;;23.52;3.70;;;11.10;99.90;;;;;;5073863;28;20488;-44
2023/01/05 06:44:32;;;;;;;34.47;4.40;;;11.10;99.90;;;;;;5073626;28;20099;-47
2023/01/05 06:46:58;;;;;;;30.52;4.63;;;11.00;99.90;;;;;;5073874;28;20028;-41
2023/01/05 06:49:24;;;;;;;25.02;3.53;;;11.00;99.90;;;;;;5073612;28;20021;-48
2023/01/05 06:51:49;;;;;;;22.38;2.78;;;11.10;99.90;;;;;;5073528;28;20292;-47
2023/01/05 06:54:15;;;;;;;27.30;4.07;;;11.00;99.90;;;;;;5073531;28;20431;-46
2023/01/05 06:56:41;;;;;;;29.05;3.20;;;11.10;99.90;;;;;;5073361;28;20025;-39
2023/01/05 06:59:10;;;;;;;19.05;2.38;;;11.10;99.90;;;;;;5072479;28;20027;-39
2023/01/05 07:01:36;;;;;;;19.42;3.30;;;11.20;99.90;;;;;;5073181;28;20062;-41
2023/01/05 07:04:01;;;;;;;22.23;3.80;;;11.10;99.90;;;;;;5073369;28;20033;-44
2023/01/05 07:06:27;;;;;;;29.98;3.88;;;11.10;99.90;;;;;;5073161;28;20488;-48
2023/01/05 07:08:52;;;;;;;17.13;2.47;;;11.20;99.90;;;;;;5073335;28;20028;-49
2023/01/05 07:11:18;;;;;;;19.73;3.58;;;11.10;99.90;;;;;;5073491;28;20024;-50
2023/01/05 07:13:50;;;;;;;29.75;4.18;;;11.10;99.90;;;;;;5073134;28;20480;-44
2023/01/05 07:16:17;;;;;;;33.15;3.83;;;11.00;99.90;;;;;;5073400;28;20029;-45
2023/01/05 07:18:42;;;;;;;22.20;3.28;;;10.90;99.90;;;;;;5072943;28;20028;-48
2023/01/05 07:21:08;;;;;;;23.88;3.30;;;10.80;99.90;;;;;;5073166;28;20040;-47
2023/01/05 07:23:36;;;;;;;24.83;4.13;;;10.80;99.90;;;;;;5072825;28;20488;-41
2023/01/05 07:26:03;;;;;;;16.30;2.80;;;10.70;99.90;;;;;;5073226;28;20043;-55
2023/01/05 07:28:28;;;;;;;17.65;3.65;;;10.80;99.90;;;;;;5073145;28;20020;-45
2023/01/05 07:30:54;;;;;;;20.77;3.80;;;10.70;99.90;;;;;;5072960;28;20089;-42
2023/01/05 07:33:20;;;;;;;18.85;2.75;;;10.80;99.90;;;;;;5072951;28;20028;-40
2023/01/05 07:35:46;;;;;;;13.88;2.67;;;10.80;99.90;;;;;;5072875;28;20033;-43
2023/01/05 07:38:30;;;;;;;23.23;3.90;;;10.90;99.90;;;;;;5072886;28;20390;-44
2023/01/05 07:40:59;;;;;;;15.98;3.83;;;10.90;99.90;;;;;;5072905;28;20515;-44
2023/01/05 07:43:25;;;;;;;22.83;3.08;;;10.90;99.90;;;;;;5071439;28;20024;-34
2023/01/05 07:45:55;;;;;;;31.88;2.55;;;10.90;99.90;;;;;;5072674;28;20469;-41
2023/01/05 07:48:21;;;;;;;28.83;4.45;;;11.00;99.90;;;;;;5072657;28;20025;-38
2023/01/05 07:50:46;;;;;;;40.20;5.03;;;11.00;99.90;;;;;;5072704;28;20024;-35
2023/01/05 07:53:12;;;;;;;18.30;3.20;;;11.00;99.90;;;;;;5072903;28;20025;-39
2023/01/05 07:55:38;;;;;;;19.90;3.50;;;11.00;99.90;;;;;;5072652;28;20206;-45
2023/01/05 07:58:03;;;;;;;23.58;3.92;;;11.00;99.90;;;;;;5072624;28;20447;-42
2023/01/05 08:00:29;;;;;;;35.03;5.13;;;11.00;99.90;;;;;;5072650;28;20024;-44
2023/01/05 08:02:58;;;;;;;26.83;3.95;;;11.00;99.90;;;;;;5072530;28;20037;-45
2023/01/05 08:05:28;;;;;;;23.88;3.63;;;10.90;99.90;;;;;;5072724;28;20483;-44
2023/01/05 08:07:54;;;;;;;14.10;2.47;;;10.90;99.90;;;;;;5072515;28;20021;-45
2023/01/05 08:10:29;;;;;;;21.50;3.08;;;10.90;99.90;;;;;;5074096;28;20029;-46
2023/01/05 08:15:43;;;;;;;27.73;3.67;;;10.80;99.90;;;;;;5076684;28;20047;-43
2023/01/05 08:18:09;;;;;;;35.22;4.13;;;10.80;99.90;;;;;;5076635;28;20021;-42
2023/01/05 08:20:34;;;;;;;14.95;2.65;;;10.90;99.90;;;;;;5076373;28;20468;-46
2023/01/05 08:23:00;;;;;;;22.70;2.80;;;10.90;99.90;;;;;;5076146;28;20134;-47
2023/01/05 08:25:26;;;;;;;27.05;3.83;;;10.90;99.90;;;;;;5074394;28;20056;-37
2023/01/05 08:27:52;;;;;;;17.38;3.33;;;10.90;99.90;;;;;;5076451;28;20423;-37
2023/01/05 08:30:18;;;;;;;34.50;4.18;;;10.90;99.90;;;;;;5074893;28;20035;-35
2023/01/05 08:32:44;;;;;;;20.25;3.08;;;10.90;99.90;;;;;;5076063;28;20063;-40
2023/01/05 08:35:10;;;;;;;36.33;4.13;;;10.90;99.90;;;;;;5076281;28;20056;-41
2023/01/05 08:37:35;;;;;;;32.60;4.95;;;10.90;99.90;;;;;;5075943;28;20074;-41
2023/01/05 08:40:01;;;;;;;12.13;3.42;;;11.00;99.90;;;;;;5076187;28;20480;-39
2023/01/05 08:42:26;;;;;;;33.58;4.43;;;11.00;99.90;;;;;;5075806;28;20036;-42
2023/01/05 08:44:52;;;;;;;14.23;3.05;;;11.00;99.90;;;;;;5075855;28;20129;-42
2023/01/05 08:47:18;;;;;;;27.35;4.43;;;11.10;99.90;;;;;;5075799;28;20025;-38
2023/01/05 08:49:43;;;;;;;19.52;2.97;;;11.10;99.90;;;;;;5074437;28;20039;-35
2023/01/05 08:52:09;;;;;;;23.77;3.22;;;11.10;99.90;;;;;;5069698;28;20028;-39
2023/01/05 08:54:34;;;;;;;31.70;3.85;;;11.10;99.90;;;;;;5070883;28;20546;-37
2023/01/05 08:57:00;;;;;;;36.03;4.65;;;11.20;99.90;;;;;;5068507;28;20028;-40
2023/01/05 08:59:26;;;;;;;20.58;4.10;;;11.10;99.90;;;;;;5073057;28;20078;-39
2023/01/05 09:01:52;;;;;;;27.70;3.30;;;11.20;99.90;;;;;;5069368;28;20036;-38
2023/01/05 09:04:17;;;;;;;15.85;3.50;;;11.10;99.90;;;;;;5075535;28;20021;-39
2023/01/05 09:06:43;;;;;;;21.38;3.65;;;11.20;99.90;;;;;;5074049;28;20028;-35
2023/01/05 09:09:09;;;;;;;24.15;3.40;;;11.20;99.90;;;;;;5072494;28;20031;-41
2023/01/05 09:11:35;;;;;;;37.90;4.28;;;11.20;99.90;;;;;;5070840;28;20499;-44
2023/01/05 09:14:01;;;;;;;28.23;3.90;;;11.20;99.90;;;;;;5074050;28;20036;-44
2023/01/05 09:16:30;;;;;;;26.83;3.78;;;11.30;99.90;;;;;;5075244;28;20111;-46
2023/01/05 09:18:57;;;;;;;31.70;3.95;;;11.30;99.90;;;;;;5075319;28;20029;-49
2023/01/05 09:21:22;;;;;;;30.10;4.10;;;11.30;99.90;;;;;;5072748;28;20549;-44
2023/01/05 09:23:48;;;;;;;21.55;3.17;;;11.30;99.90;;;;;;5074941;28;20045;-43
2023/01/05 09:26:15;;;;;;;32.95;4.00;;;11.40;99.90;;;;;;5075338;28;20008;-44
2023/01/05 09:28:42;;;;;;;17.70;3.38;;;11.40;99.90;;;;;;5075009;28;20044;-41
2023/01/05 09:31:14;;;;;;;19.55;2.90;;;11.40;99.90;;;;;;5075155;28;20034;-49
2023/01/05 09:33:40;;;;;;;11.80;2.47;;;11.40;99.90;;;;;;5075319;28;20480;-49
2023/01/05 09:36:07;;;;;;;33.95;4.35;;;11.50;99.90;;;;;;5075070;28;20067;-57
2023/01/05 09:38:33;;;;;;;17.63;3.17;;;11.50;99.90;;;;;;5074909;28;20469;-46
2023/01/05 09:41:07;;;;;;;16.60;3.78;;;11.50;99.90;;;;;;5074917;28;20031;-48
2023/01/05 09:43:37;;;;;;;27.77;3.58;;;11.50;99.90;;;;;;5074901;28;20082;-48
2023/01/05 09:46:08;;;;;;;27.67;5.50;;;11.50;99.90;;;;;;5074667;28;20024;-46
2023/01/05 09:48:39;;;;;;;20.30;3.88;;;11.50;99.90;;;;;;5073709;28;20028;-46
2023/01/05 09:51:06;;;;;;;22.98;4.88;;;11.60;99.90;;;;;;5073984;28;20040;-44
2023/01/05 09:53:32;;;;;;;21.57;3.97;;;11.60;99.90;;;;;;5057661;28;20013;-49
2023/01/05 09:55:58;;;;;;;22.50;3.67;;;11.60;99.90;;;;;;5071673;28;20768;-48
2023/01/05 09:58:29;;;;;;;31.88;6.10;;;11.50;99.90;;;;;;5059588;28;20465;-47
2023/01/05 10:01:14;;;;;;;19.58;3.08;;;11.60;99.90;;;;;;5072750;28;20016;-46
2023/01/05 10:03:57;;;;;;;14.43;3.05;;;11.60;99.90;;;;;;5074713;28;20032;-44
2023/01/05 10:06:27;;;;;;;20.70;3.60;;;11.50;99.90;;;;;;5074118;28;20441;-47
2023/01/05 10:08:55;;;;;;;21.77;4.25;;;11.50;99.90;;;;;;5070645;28;20430;-41
2023/01/05 10:14:57;;;;;;;16.20;3.00;;;11.60;99.90;;;;;;5054292;28;20044;-41
2023/01/05 10:17:25;;;;;;;24.77;3.55;;;11.60;99.90;;;;;;5054121;28;20503;-40
2023/01/05 10:19:50;;;;;;;14.13;2.60;;;11.60;99.90;;;;;;5073092;28;20116;-47
2023/01/05 10:22:53;;;;;;;24.38;3.40;;;11.70;99.90;;;;;;5072260;28;20112;-49
2023/01/05 10:25:50;;;;;;;24.40;3.88;;;11.80;99.90;;;;;;5073249;28;20090;-44
2023/01/05 10:28:24;;;;;;;20.55;2.83;;;11.80;99.90;;;;;;5062576;28;20067;-35
2023/01/05 10:31:01;;;;;;;33.17;3.55;;;11.80;99.90;;;;;;5059992;28;20032;-46
2023/01/05 10:33:36;;;;;;;31.58;3.55;;;11.80;99.90;;;;;;5072813;28;20100;-45
2023/01/05 10:36:25;;;;;;;27.02;3.10;;;11.80;99.90;;;;;;5072394;28;20511;-45
2023/01/05 10:39:45;;;;;;;23.25;3.58;;;11.80;99.90;;;;;;5071831;28;20494;-47
2023/01/05 10:42:36;;;;;;;23.10;3.78;;;11.80;99.90;;;;;;4983937;28;20034;-44
2023/01/05 10:45:03;;;;;;;21.65;3.20;;;11.80;99.90;;;;;;4983096;28;20043;-45
2023/01/05 10:47:34;;;;;;;24.30;3.95;;;11.90;99.90;;;;;;5054037;28;20484;-44
2023/01/05 10:50:01;;;;;;;23.02;3.58;;;11.90;99.90;;;;;;5073845;28;20542;-43
2023/01/05 10:52:26;;;;;;;29.02;2.97;;;12.00;99.90;;;;;;5073385;28;20503;-43
2023/01/05 10:55:00;;;;;;;28.60;3.03;;;12.10;99.90;;;;;;5073660;28;20107;-46
2023/01/05 10:57:28;;;;;;;21.67;2.85;;;12.20;99.90;;;;;;5073424;28;20480;-45
2023/01/05 10:59:55;;;;;;;20.10;3.83;;;12.30;99.90;;;;;;5073513;28;20037;-59
2023/01/05 11:02:21;;;;;;;31.40;4.97;;;12.30;99.90;;;;;;5073131;28;20021;-36
2023/01/05 11:04:48;;;;;;;23.17;3.35;;;12.30;99.90;;;;;;5073463;28;20480;-40
2023/01/05 11:07:14;;;;;;;12.80;2.83;;;12.30;99.90;;;;;;5053250;28;20078;-36
2023/01/05 11:09:43;;;;;;;20.98;3.38;;;12.30;99.90;;;;;;5053143;28;20025;-41
2023/01/05 11:12:21;;;;;;;29.05;2.83;;;12.30;99.90;;;;;;5057337;28;20021;-40
2023/01/05 11:14:57;;;;;;;20.92;3.15;;;12.20;99.90;;;;;;5073286;28;20484;-42
2023/01/05 11:17:25;;;;;;;25.67;4.53;;;12.30;99.90;;;;;;5073282;28;20480;-38
2023/01/05 11:20:14;;;;;;;27.95;4.05;;;12.30;99.90;;;;;;5072988;28;20029;-41
2023/01/05 11:22:39;;;;;;;24.65;4.65;;;12.40;99.90;;;;;;5072945;28;20422;-39
2023/01/05 11:25:21;;;;;;;22.70;2.85;;;12.40;99.90;;;;;;5072724;28;20040;-41
2023/01/05 11:28:05;;;;;;;23.50;3.70;;;12.30;99.90;;;;;;5072918;28;20063;-40
2023/01/05 11:30:32;;;;;;;17.58;2.47;;;12.30;99.90;;;;;;5071485;28;20457;-37
2023/01/05 11:33:00;;;;;;;25.37;4.47;;;12.30;99.90;;;;;;5072801;28;20056;-39
2023/01/05 11:35:28;;;;;;;23.80;5.03;;;12.40;99.90;;;;;;5072976;28;20028;-40
2023/01/05 11:37:56;;;;;;;26.25;3.65;;;12.50;99.90;;;;;;5072773;28;20033;-34
2023/01/05 11:40:26;;;;;;;33.47;4.18;;;12.60;99.90;;;;;;5073026;28;20095;-39
2023/01/05 11:42:52;;;;;;;29.23;4.93;;;12.60;99.90;;;;;;5072953;28;20534;-36
2023/01/05 11:45:23;;;;;;;22.55;3.60;;;12.60;99.90;;;;;;5072456;28;20053;-38
2023/01/05 11:47:55;;;;;;;25.58;4.35;;;12.70;99.90;;;;;;5072980;28;20024;-38
2023/01/05 11:50:25;;;;;;;21.02;3.42;;;12.70;99.90;;;;;;5072927;28;20472;-39
2023/01/05 11:53:03;;;;;;;21.77;3.97;;;12.50;99.90;;;;;;5072613;28;20031;-41
2023/01/05 11:55:38;;;;;;;21.63;3.28;;;12.60;99.90;;;;;;5072662;28;20037;-38
2023/01/05 11:58:16;;;;;;;25.33;4.10;;;12.70;99.90;;;;;;5065954;28;20520;-42
2023/01/05 12:01:04;;;;;;;;;;;12.70;99.90;;;;;;5070498;28;20074;-39
2023/01/05 12:03:48;;;;;;;26.55;3.95;;;12.70;99.90;;;;;;5070488;28;19951;-40
2023/01/05 12:06:35;;;;;;;25.60;3.72;;;12.70;99.90;;;;;;5063766;28;20036;-36
2023/01/05 12:09:04;;;;;;;17.23;3.90;;;12.70;99.90;;;;;;5072401;28;20036;-40
2023/01/05 12:11:44;;;;;;;20.77;3.85;;;12.60;99.90;;;;;;5072181;28;20564;-36
2023/01/05 12:14:34;;;;;;;19.17;3.15;;;12.60;99.90;;;;;;5072291;28;20554;-39
2023/01/05 12:17:10;;;;;;;27.48;2.95;;;12.40;99.90;;;;;;5072220;28;20488;-37
2023/01/05 12:19:56;;;;;;;23.75;2.70;;;12.50;99.90;;;;;;5072363;28;20046;-37
2023/01/05 12:22:40;;;;;;;28.60;3.70;;;12.60;99.90;;;;;;5072207;28;20036;-39
2023/01/05 12:25:19;;;;;;;18.60;3.40;;;12.90;99.90;;;;;;5072134;28;20045;-40
2023/01/05 12:28:15;;;;;;;26.45;3.42;;;13.00;99.90;;;;;;5072306;28;20115;-38
2023/01/05 12:31:29;;;;;;;24.90;3.55;;;13.10;99.90;;;;;;5072216;28;20031;-38
2023/01/05 12:34:32;;;;;;;23.40;4.07;;;13.20;99.90;;;;;;5054244;28;20492;-38
2023/01/05 12:37:18;;;;;;;24.95;3.00;;;13.20;99.90;;;;;;5072153;28;20082;-38
2023/01/05 12:39:57;;;;;;;19.77;2.72;;;13.20;99.90;;;;;;5072143;28;20546;-38
2023/01/05 12:42:37;;;;;;;16.05;2.70;;;13.20;99.90;;;;;;5072071;28;20125;-38
2023/01/05 12:45:35;;;;;;;25.85;3.28;;;13.10;99.90;;;;;;5072403;28;20032;-36
2023/01/05 12:48:24;;;;;;;17.50;2.70;;;13.10;99.90;;;;;;5072043;28;20531;-37
2023/01/05 12:51:02;;;;;;;19.45;3.33;;;13.10;99.90;;;;;;5070804;28;20029;-39
2023/01/05 12:53:58;;;;;;;18.48;3.13;;;13.20;99.90;;;;;;5072307;28;20325;-37
2023/01/05 12:56:32;;;;;;;19.67;3.30;;;13.10;99.90;;;;;;5072021;28;20040;-38
2023/01/05 12:59:04;;;;;;;20.67;3.22;;;13.00;99.90;;;;;;5075820;28;20500;-40
2023/01/05 13:01:35;;;;;;;16.98;2.65;;;13.00;99.90;;;;;;5075527;28;20484;-37
2023/01/05 13:04:25;;;;;;;23.60;4.18;;;13.00;99.90;;;;;;5075555;28;20025;-35
2023/01/05 13:06:54;;;;;;;24.10;3.95;;;13.10;99.90;;;;;;5073711;28;20036;-40
2023/01/05 13:09:22;;;;;;;25.08;3.80;;;13.10;99.90;;;;;;5075359;28;20021;-34
2023/01/05 13:11:56;;;;;;;15.90;2.95;;;13.10;99.90;;;;;;5075626;28;20032;-38
2023/01/05 13:14:27;;;;;;;16.25;2.55;;;13.10;99.90;;;;;;5075265;28;20396;-41
2023/01/05 13:17:30;;;;;;;25.83;3.65;;;13.10;99.90;;;;;;5075560;28;20048;-45
2023/01/05 13:20:42;;;;;;;28.92;3.15;;;13.10;99.90;;;;;;5013464;28;20033;-41
2023/01/05 13:23:30;;;;;;;26.52;3.70;;;13.00;99.90;;;;;;5056560;28;20044;-44
2023/01/05 13:26:13;;;;;;;25.05;4.43;;;13.00;99.90;;;;;;5075085;28;20048;-43
2023/01/05 13:28:39;;;;;;;25.38;3.72;;;12.90;99.90;;;;;;5075185;28;20396;-43
2023/01/05 13:31:07;;;;;;;29.52;4.20;;;12.80;99.90;;;;;;5075320;28;20027;-47
2023/01/05 13:33:54;;;;;;;20.13;4.32;;;12.70;99.90;;;;;;5074920;28;20105;-43